Hoppa till innehåll

METAR väder och rapporter - ZBAA

Nedan listas information från vald flygplats. Andra METARs finns längre ned på sidan. Kontakta oss om någon saknas eller skriv in egen ICAO-kod.

Coded METAR: 2022/06/26 07:30 ZBAA 260730Z 08004MPS 040V140 CAVOK 32/20 Q1001 NOSIG

Weather Report @ ZBAA

Issued: 26th Jun 2022 at 09:30 CEST

Wind: gentle breeze from the East (080 degrees) at 8 knots (9 mph, 15 kph, 4 mps, Force 3)
Wind: direction varying between from the Northeast (040 degrees) and from the Southeast (140 degrees)
Weather: good visibility and no low cloud (ceiling and visibility OK)
Temperature: 90F / 32C
Dewpoint: 68F / 20C
Humidity: 49%
Pressure: 1001 hPa
Weather: no significant change expected

Coded TAF: 2022/06/26 06:03 TAF TAF ZBAA 260304Z 2606/2706 10004MPS 5000 -SHRA BR BKN040 TX33/2607Z TN21/2621Z TEMPO 2608/2614 18010G18MPS -TSRA FEW030CB BKN040

Weather Forecast @ ZBAA

Issued: 26th Jun 2022 at 08:03 CEST

Valid : 26th Jun 08:00 until 27th Jun 08:00 CEST

08:00 CEST
Wind: gentle breeze from the East (100 degrees) at 8 knots (9 mph, 15 kph, 4 mps, Force 3)
Visibility: 5000 metres
Weather: light showers of rain
Weather: mist
Cloud: broken at 4000 feet
Max. Temp: 91F / 33C at 01:00 CET
Min. Temp: 70F / 21C at 01:00 CET

10:00 CEST to 16:00 CEST
Occasional

Wind: fresh breeze from the South (180 degrees) at 19 knots (22 mph, 35 kph, 10 mps, Force 5) gusting to 35 knots (40 mph 65 kph, 18 mps)
Weather: light thunderstorm with rain
Cloud: a few clouds at 3000 feet with cumulonimbus
Cloud: broken at 4000 feet

Internet delivery of weather data is not secure or reliable enough for operational purposes.

NEVER RELY ON THE OUTPUT OF THIS SCRIPT TO MAKE DECISIONS ABOUT ANYTHING IN WHICH THE WEATHER FORECAST AND ITS INTERPRETATION COULD BE AN ISSUE OF SAFETY.

Andra intressanta METARs

Klicka på önskad rubrik nedan för att visa nuvarande väder för den platsen.

Avstånd från stationen: NO 27kmESGG - Göteborg (Landvetter)
Uppdaterad: 2022-06-26 09:20
 Vind från ONO
Vind: ONO 13 km/h
Temperatur: 19°C
Daggpunkt: 15°C
Luftfuktighet: 78%
Barometer: 1015 hPa
Summering: Lätt regn, Nearby showers
Moln: Några få moln
Sikt: 10 km
Molninformation: Några få moln 762 m
2022/06/26 07:20 ESGG 260720Z 07007KT 9999 -RA VCSH FEW025CB 19/15 Q1015
Lätt regn, Nearby showers, Några få moln
Lätt regn
Nearby showers
Några få moln
  Visa detaljer för Göteborg (Landvetter)
Avstånd från stationen: N 28kmESGP - Göteborg (Säve)
Uppdaterad: 2022-06-26 09:20
 Vind från ONO
Vind: ONO 6 km/h
Temperatur: 18°C
Daggpunkt: 16°C
Luftfuktighet: 88%
Barometer: 1015 hPa
Summering: Lätt regn, Nearby showers
Moln: Övervägande molnigt
Sikt: 10 km
Molninformation: Övervägande molnigt 792 m
2022/06/26 07:20 ESGP 260720Z 06003KT 020V100 9999 -RA VCSH BKN026CB 18/16 Q1015
Lätt regn, Nearby showers, Övervägande molnigt
Lätt regn
Nearby showers
Övervägande molnigt
  Visa detaljer för Göteborg (Säve)
Avstånd från stationen: NO 419kmESSA - Stockholm (Arlanda)
Uppdaterad: 2022-06-26 09:20
 Vind från SSO
Vind: SSO 9 km/h
Temperatur: 24°C
Daggpunkt: 12°C
Luftfuktighet: 47%
Barometer: 1019 hPa
Summering: Klart
Sikt: mer än 10 km
2022/06/26 07:20 ESSA 260720Z 15005KT 100V170 CAVOK 24/12 Q1019 NOSIG
Klart
Klart
  Visa detaljer för Stockholm (Arlanda)
Avstånd från stationen: ONO 404kmESSB - Stockholm (Bromma)
Uppdaterad: 2022-06-26 09:20
 Vind från OSO
Vind: OSO 6 km/h
Temperatur: 26°C
Daggpunkt: 12°C
Luftfuktighet: 42%
Barometer: 1019 hPa
Moln: Klart
Sikt: 10 km
2022/06/26 07:20 ESSB 260720Z AUTO 12003KT 070V150 9999 NCD 26/12 Q1019
Klart
Klart
  Visa detaljer för Stockholm (Bromma)
Avstånd från stationen: ONO 323kmESKN - Stockholm (Skavsta)
Uppdaterad: 2022-06-26 09:20
 Vind från O
Vind: O 9 km/h
Temperatur: 24°C
Daggpunkt: 16°C
Luftfuktighet: 61%
Barometer: 1019 hPa
Summering: Klart
Sikt: mer än 10 km
2022/06/26 07:20 ESKN 260720Z 10005KT CAVOK 24/16 Q1019
Klart
Klart
  Visa detaljer för Stockholm (Skavsta)
Avstånd från stationen: SSO 238kmESMS - Malmö flygplats (Sturup)
Uppdaterad: 2022-06-26 09:20
 Vind från OSO
Vind: OSO 17 km/h
Temperatur: 23°C
Daggpunkt: 16°C
Luftfuktighet: 65%
Barometer: 1015 hPa
Summering: Klart
Sikt: mer än 10 km
2022/06/26 07:20 ESMS 260720Z 11009KT CAVOK 23/16 Q1015
Klart
Klart
  Visa detaljer för Malmö flygplats (Sturup)
Avstånd från stationen: O 382kmESSV - Visby flygplats
Uppdaterad: 2022-06-26 09:20
 Vind från SO
Vind: SO 13 km/h
Temperatur: 27°C
Värmeindex: 28°C
Daggpunkt: 16°C
Luftfuktighet: 51%
Barometer: 1019 hPa
Summering: Klart
Sikt: mer än 10 km
2022/06/26 07:20 ESSV 260720Z 13007KT CAVOK 27/16 Q1019
Klart
Klart
  Visa detaljer för Visby flygplats
Avstånd från stationen: NNO 92kmESGT - Trollhättan
Uppdaterad: 2022-06-26 09:20
 Vind från S
Vind: S 7 km/h
Temperatur: 21°C
Daggpunkt: 16°C
Luftfuktighet: 73%
Barometer: 1016 hPa
Moln: Genommulet
Sikt: 10 km
Molninformation: Övervägande molnigt 2560 m
Genommulet 2987 m
2022/06/26 07:20 ESGT 260720Z AUTO 18004KT 9999 BKN084/// OVC098/// 21/16 Q1016
Genommulet
Genommulet
  Visa detaljer för Trollhättan
Avstånd från stationen: ONO 129kmESGJ - Jönköpings flygplats
Uppdaterad: 2022-06-26 09:20
 Vind från ONO
Vind: ONO 9 km/h
Temperatur: 24°C
Daggpunkt: 16°C
Luftfuktighet: 61%
Barometer: 1017 hPa
Moln: Klart
Sikt: 10 km
2022/06/26 07:20 ESGJ 260720Z AUTO 07005KT 9999 NCD 24/16 Q1017
Klart
Klart
  Visa detaljer för Jönköpings flygplats
Avstånd från stationen: NNO 229kmESOK - Karlstad
Uppdaterad: 2022-06-26 09:20
 Vind från S
Vind: S 13 km/h
Temperatur: 23°C
Daggpunkt: 12°C
Luftfuktighet: 50%
Barometer: 1018 hPa
Moln: Några få moln
Sikt: 10 km
Molninformation: Några få moln 1494 m
2022/06/26 07:20 ESOK 260720Z AUTO 17007KT 9999 FEW049/// 23/12 Q1018
Några få moln
Några få moln
  Visa detaljer för Karlstad
Avstånd från stationen: N 643kmESNZ - Östersund (Frösön)
Uppdaterad: 2022-06-26 09:20
 Vind från S
Vind: S 9 km/h
Temperatur: 24°C
Daggpunkt: 14°C
Luftfuktighet: 54%
Barometer: 1018 hPa
Summering: Klart
Sikt: mer än 10 km
2022/06/26 07:20 ESNZ 260720Z 17005KT 150V220 CAVOK 24/14 Q1018
Klart
Klart
  Visa detaljer för Östersund (Frösön)
Avstånd från stationen: SSO 216kmEKCH - Köpenhamn (Kastrup)
Uppdaterad: 2022-06-26 09:20
 Vind från SSO
Vind: SSO 9 km/h
Temperatur: 22°C
Daggpunkt: 17°C
Luftfuktighet: 73%
Barometer: 1014 hPa
Moln: Några få moln
Sikt: 10 km
Molninformation: Några få moln 4572 m
2022/06/26 07:20 EKCH 260720Z AUTO 15005KT 9999 FEW150/// 22/17 Q1014 NOSIG
Några få moln
Några få moln
  Visa detaljer för Köpenhamn (Kastrup)
Avstånd från stationen: SV 263kmEKBI - Billund Airport
Uppdaterad: 2022-06-26 09:20
 Vind från OSO
Vind: OSO 13 km/h
Temperatur: 22°C
Daggpunkt: 18°C
Luftfuktighet: 78%
Barometer: 1013 hPa
Moln: Övervägande molnigt
Sikt: 10 km
Molninformation: Övervägande molnigt 3048 m
2022/06/26 07:20 EKBI 260720Z AUTO 11007KT 080V140 9999 BKN100/// 22/18 Q1013
Övervägande molnigt
Övervägande molnigt
  Visa detaljer för Billund Airport
Avstånd från stationen: N 302kmENGM - Oslo (Gardermoen)
Uppdaterad: 2022-06-26 09:20
 Vind från ONO
Vind: ONO 6 km/h
Temperatur: 21°C
Daggpunkt: 16°C
Luftfuktighet: 73%
Barometer: 1017 hPa
Summering: Klart
Sikt: mer än 10 km
2022/06/26 07:20 ENGM 260720Z 06003KT 030V170 CAVOK 21/16 Q1017 NOSIG
Klart
Klart
  Visa detaljer för Oslo (Gardermoen)
Avstånd från stationen: NO 540kmEFMA - Mariehamn / Åland
Uppdaterad: 2022-06-26 09:20
 Vind från SO
Vind: SO 9 km/h
Temperatur: 25°C
Daggpunkt: 15°C
Luftfuktighet: 54%
Barometer: 1020 hPa
Summering: Klart
Sikt: mer än 10 km
2022/06/26 07:20 EFMA 260720Z AUTO 14005KT 090V190 CAVOK 25/15 Q1020
Klart
Klart
  Visa detaljer för Mariehamn / Åland
Avstånd från stationen: S 558kmEDDT - Berlin (Tegel), Germany
Uppdaterad: 2020-11-09 07:50
Ej aktuell
 Vind från O
Vind: O 11 km/h
Temperatur: 6°C
Vindavkylning: 4°C
Daggpunkt: 5°C
Luftfuktighet: 93%
Barometer: 1027 hPa
Summering: Dimmigt
Moln: Genommulet
Sikt: 3 km
Molninformation: Genommulet 91 m
2020/11/09 06:50 EDDT 090650Z 09006KT 050V120 3000 BR OVC003 06/05 Q1027
Dimmigt, Genommulet
Dimmigt
Genommulet
  Visa detaljer för Berlin (Tegel), Germany
Avstånd från stationen: SV 737kmEHAM - Amsterdam (Schiphol)
Uppdaterad: 2022-06-26 09:25
 Vind från SV
Vind: SV 15 km/h
Temperatur: 17°C
Daggpunkt: 14°C
Luftfuktighet: 83%
Barometer: 1014 hPa
Moln: Övervägande molnigt
Sikt: 10 km
Molninformation: Övervägande molnigt 366 m
2022/06/26 07:25 EHAM 260725Z 22008KT 9999 BKN012 17/14 Q1014 BECMG SCT015
Övervägande molnigt
Övervägande molnigt
  Visa detaljer för Amsterdam (Schiphol)
Avstånd från stationen: ONO 808kmEFHK - Helsingfors (Vantaa)
Uppdaterad: 2022-06-26 09:20
 Vind från V
Vind: V 6 km/h
Temperatur: 26°C
Daggpunkt: 14°C
Luftfuktighet: 48%
Barometer: 1022 hPa
Summering: Klart
Sikt: mer än 10 km
2022/06/26 07:20 EFHK 260720Z 28003KT 230V330 CAVOK 26/14 Q1022 NOSIG
Klart
Klart
  Visa detaljer för Helsingfors (Vantaa)
Avstånd från stationen: SSV 537kmEDDW - Bremen
Uppdaterad: 2022-06-26 09:20
 Vind från V
Vind: V 13 km/h
Temperatur: 21°C
Daggpunkt: 15°C
Luftfuktighet: 69%
Barometer: 1013 hPa
Summering: Klart
Sikt: mer än 10 km
2022/06/26 07:20 EDDW 260720Z AUTO 26007KT CAVOK 21/15 Q1013 NOSIG
Klart
Klart
  Visa detaljer för Bremen
Avstånd från stationen: SSV 861kmEDDF - Frankfurt am Main
Uppdaterad: 2022-06-26 09:20
 Vind från SV
Vind: SV 15 km/h
Temperatur: 22°C
Daggpunkt: 15°C
Luftfuktighet: 65%
Barometer: 1015 hPa
Moln: Några få moln
Sikt: 10 km
Molninformation: Några få moln 701 m
2022/06/26 07:20 EDDF 260720Z 23008KT 210V270 9999 FEW023 22/15 Q1015 NOSIG
Några få moln
Några få moln
  Visa detaljer för Frankfurt am Main
Avstånd från stationen: SV 880kmEBBR - Bryssel international
Uppdaterad: 2022-06-26 09:20
 Vind från S
Vind: S 13 km/h
Temperatur: 15°C
Daggpunkt: 13°C
Luftfuktighet: 88%
Barometer: 1015 hPa
Moln: Några få moln
Sikt: 10 km
Molninformation: Några få moln 335 m
2022/06/26 07:20 EBBR 260720Z 19007KT 9999 FEW011 15/13 Q1015 NOSIG
Några få moln
Några få moln
  Visa detaljer för Bryssel international
Avstånd från stationen: SV 738kmEHAM - Amsterdam (Schiphol)
Uppdaterad: 2022-06-26 09:25
 Vind från SV
Vind: SV 15 km/h
Temperatur: 17°C
Daggpunkt: 14°C
Luftfuktighet: 83%
Barometer: 1014 hPa
Moln: Övervägande molnigt
Sikt: 10 km
Molninformation: Övervägande molnigt 366 m
2022/06/26 07:25 EHAM 260725Z 22008KT 9999 BKN012 17/14 Q1014 BECMG SCT015
Övervägande molnigt
Övervägande molnigt
  Visa detaljer för Amsterdam (Schiphol)
Avstånd från stationen: SV 1044kmEGLL - London (Heathrow)
Uppdaterad: 2022-06-26 09:20
 Vind från SSV
Vind: SSV 26 km/h
Temperatur: 16°C
Daggpunkt: 9°C
Luftfuktighet: 63%
Barometer: 1011 hPa
Moln: Delvis molnigt
Sikt: 10 km
Molninformation: Delvis molnigt 792 m
2022/06/26 07:20 EGLL 260720Z AUTO 20014KT 9999 SCT026 16/09 Q1011 NOSIG
Delvis molnigt
Delvis molnigt
  Visa detaljer för London (Heathrow)
Avstånd från stationen: SV 1132kmLFPG - Paris (Charles de Gaulle)
Uppdaterad: 2022-06-26 09:30
 Vind från S
Vind: S 6 km/h
Temperatur: 15°C
Daggpunkt: 10°C
Luftfuktighet: 72%
Barometer: 1016 hPa
Moln: Övervägande molnigt
Sikt: 10 km
Molninformation: Några få moln 610 m
Delvis molnigt 1920 m
Övervägande molnigt 3048 m
2022/06/26 07:30 LFPG 260730Z 19003KT 130V240 9999 FEW020 SCT063 BKN100 15/10 Q1016 NOSIG
Övervägande molnigt
Övervägande molnigt
  Visa detaljer för Paris (Charles de Gaulle)
Avstånd från stationen: SSV 1142kmLSZH - Zürich Airport
Uppdaterad: 2022-06-26 09:20
 Vind från NV
Vind: NV 9 km/h
Temperatur: 19°C
Daggpunkt: 16°C
Luftfuktighet: 83%
Barometer: 1015 hPa
Moln: Några få moln
Sikt: 10 km
Molninformation: Några få moln 366 m
2022/06/26 07:20 LSZH 260720Z 32005KT 280V350 9999 FEW012 19/16 Q1015 NOSIG
Några få moln
Några få moln
  Visa detaljer för Zürich Airport
Avstånd från stationen: S 1749kmLIRF - Rome Airport (Fiumicino - Leonardo da Vinci)
Uppdaterad: 2022-06-26 09:20
 Vind från ONO
Vind: ONO 15 km/h
Temperatur: 30°C
Värmeindex: 31°C
Daggpunkt: 17°C
Luftfuktighet: 46%
Barometer: 1014 hPa
Summering: Klart
Sikt: mer än 10 km
2022/06/26 07:20 LIRF 260720Z 06008KT CAVOK 30/17 Q1014 NOSIG
Klart
Klart
  Visa detaljer för Rome Airport (Fiumicino - Leonardo da Vinci)
Avstånd från stationen: SO 2679kmLTAI - Antalya
Uppdaterad: 2022-06-26 09:20
 Vind från N
Vind: N 24 km/h
Temperatur: 31°C
Daggpunkt: 11°C
Luftfuktighet: 29%
Barometer: 1009 hPa
Moln: Några få moln
Sikt: 10 km
Molninformation: Några få moln 914 m
2022/06/26 07:20 LTAI 260720Z 36013KT 9999 FEW030 31/11 Q1009 NOSIG
Några få moln
Några få moln
  Visa detaljer för Antalya
Avstånd från stationen: VSV 6074kmKJFK - New Your (JFK)
Uppdaterad: 2022-06-26 08:51
 Vind från SSV
Vind: SSV 11 km/h
Temperatur: 21°C
Daggpunkt: 18°C
Luftfuktighet: 83%
Barometer: 1019.6 hPa
Moln: Några få moln
Sikt: 16 km
Molninformation: Några få moln 7620 m
2022/06/26 06:51 KJFK 260651Z 21006KT 10SM FEW250 21/18 A3011 RMK AO2 SLP194 T02060183 $
Några få moln
Några få moln
  Visa detaljer för New Your (JFK)
Avstånd från stationen: VSV 8848kmKLAX - Los Angeles International Airport
Uppdaterad: 2022-06-26 08:53
 Vind från calm
Vind: Vindstilla
Temperatur: 18°C
Daggpunkt: 16°C
Luftfuktighet: 88%
Barometer: 1014.6 hPa
Moln: Övervägande molnigt
Sikt: 14 km
Molninformation: Övervägande molnigt 274 m
2022/06/26 06:53 KLAX 260653Z 00000KT 9SM BKN009 18/16 A2996 RMK AO2 SLP142 T01780156
Övervägande molnigt
Övervägande molnigt
  Visa detaljer för Los Angeles International Airport
Avstånd från stationen: SO 4968kmOMDB - Dubai International Airport
Uppdaterad: 2022-06-26 09:00
 Vind från VSV
Vind: VSV 7 km/h
Temperatur: 38°C
Värmeindex: 44°C
Daggpunkt: 23°C
Luftfuktighet: 42%
Barometer: 997 hPa
Moln: Delvis molnigt
Sikt: 9 km
2022/06/26 07:00 OMDB 260700Z 24004KT 160V310 9000 NSC 38/23 Q0997 NOSIG
Delvis molnigt
Delvis molnigt
  Visa detaljer för Dubai International Airport
Avstånd från stationen: OSO 8570kmRJTT - Tokyo International Airport
Uppdaterad: 2022-06-26 09:30
 Vind från S
Vind: S 30 km/h
Temperatur: 29°C
Värmeindex: 32°C
Daggpunkt: 22°C
Luftfuktighet: 66%
Barometer: 1011 hPa
Moln: Delvis molnigt
Sikt: 10 km
Molninformation: Några få moln 914 m
Delvis molnigt 3962 m
2022/06/26 07:30 RJTT 260730Z 19016KT 9999 FEW030 SCT130 29/22 Q1011 NOSIG RMK 1CU030 3AC130 A2986
Delvis molnigt
Delvis molnigt
  Visa detaljer för Tokyo International Airport
Avstånd från stationen: OSO 7125kmZBAA - Peking (Beijing Capital)
Uppdaterad: 2022-06-26 09:30
 Vind från O
Vind: O 14 km/h
Temperatur: 32°C
Värmeindex: 34°C
Daggpunkt: 20°C
Luftfuktighet: 49%
Barometer: 1001 hPa
Summering: Klart
Sikt: mer än 10 km
2022/06/26 07:30 ZBAA 260730Z 08004MPS 040V140 CAVOK 32/20 Q1001 NOSIG
Klart
Klart
  Visa detaljer för Peking (Beijing Capital)
VÄDER KURIOSA -  LightningThe chances of being hit by lightning is 1:28,500.